Time;durP1;ratioP1;P1;durP2;ratioP2;P2;SDS_P1;SDS_P2;PMS_P1;PMS_P2;Temp;Humidity;BMP_temperature;BMP_pressure;BME280_temperature;BME280_humidity;BME280_pressure;Samples;Min_cycle;Max_cycle;Signal;HPM_P1;HPM_P2
2022/05/27 00:02:21;;;;;;;2.60;1.80;;;16.90;87.10;;;;;;6176091;23;20415;-85
2022/05/27 00:04:48;;;;;;;4.37;2.20;;;16.90;87.60;;;;;;6174947;23;20866;-86
2022/05/27 00:07:15;;;;;;;2.50;2.20;;;16.80;87.80;;;;;;6168903;23;20416;-85
2022/05/27 00:09:42;;;;;;;2.70;2.10;;;16.80;87.90;;;;;;6162722;23;20823;-84
2022/05/27 00:12:09;;;;;;;2.63;1.73;;;16.80;87.80;;;;;;6160031;23;20438;-86
2022/05/27 00:14:36;;;;;;;3.83;1.90;;;16.70;87.90;;;;;;6160077;23;20443;-85
2022/05/27 00:17:04;;;;;;;3.30;1.90;;;16.80;87.60;;;;;;6159513;23;20729;-84
2022/05/27 00:19:31;;;;;;;4.30;2.00;;;16.70;88.00;;;;;;6163426;23;20894;-86
2022/05/27 00:21:58;;;;;;;3.33;2.23;;;16.60;88.70;;;;;;6164936;23;20447;-87
2022/05/27 00:24:25;;;;;;;2.80;2.30;;;16.50;89.70;;;;;;6163829;23;20407;-87
2022/05/27 00:26:52;;;;;;;2.50;2.30;;;16.40;90.00;;;;;;6158543;23;20403;-87
2022/05/27 00:29:18;;;;;;;3.70;2.40;;;16.40;90.40;;;;;;6166598;23;20407;-85
2022/05/27 00:31:45;;;;;;;2.70;2.00;;;16.40;90.10;;;;;;6162856;23;20431;-85
2022/05/27 00:34:14;;;;;;;2.73;1.80;;;16.30;90.40;;;;;;6171985;23;20511;-85
2022/05/27 00:36:42;;;;;;;2.70;2.20;;;16.30;90.30;;;;;;6174220;23;20425;-85
2022/05/27 00:39:08;;;;;;;2.20;1.70;;;16.20;90.70;;;;;;6166160;23;20413;-86
2022/05/27 00:41:35;;;;;;;4.73;3.00;;;16.20;90.90;;;;;;6157396;23;20952;-85
2022/05/27 00:44:03;;;;;;;2.43;2.23;;;16.10;91.00;;;;;;6157464;23;20396;-85
2022/05/27 00:46:33;;;;;;;4.80;2.27;;;16.10;91.30;;;;;;6157872;23;20426;-85
2022/05/27 00:49:09;;;;;;;4.23;2.47;;;16.00;91.50;;;;;;6162213;23;20391;-85
2022/05/27 00:51:43;;;;;;;3.73;2.23;;;16.10;91.50;;;;;;6157908;23;20755;-85
2022/05/27 00:54:13;;;;;;;3.30;1.90;;;16.20;91.20;;;;;;6158017;23;20521;-85
2022/05/27 00:56:43;;;;;;;2.40;1.80;;;16.20;91.30;;;;;;6156923;23;20913;-85
2022/05/27 00:59:18;;;;;;;2.20;1.50;;;16.30;90.80;;;;;;6155665;23;20397;-85
2022/05/27 01:01:45;;;;;;;4.27;2.20;;;16.20;90.90;;;;;;6160981;23;20434;-86
2022/05/27 01:04:12;;;;;;;2.60;2.00;;;16.20;91.30;;;;;;6161104;23;20470;-86
2022/05/27 01:06:40;;;;;;;2.60;2.30;;;16.20;91.20;;;;;;6159755;23;20410;-83
2022/05/27 01:09:07;;;;;;;2.60;2.40;;;16.00;91.70;;;;;;6157527;23;21086;-85
2022/05/27 01:11:54;;;;;;;3.27;1.97;;;15.90;92.10;;;;;;6156447;23;20427;-85
2022/05/27 01:14:33;;;;;;;2.60;1.90;;;15.90;92.20;;;;;;6157525;23;20435;-85
2022/05/27 01:17:09;;;;;;;5.67;2.20;;;16.00;92.10;;;;;;6172195;23;20392;-85
2022/05/27 01:20:21;;;;;;;2.60;2.20;;;16.00;91.80;;;;;;6175647;23;20387;-82
2022/05/27 01:23:16;;;;;;;4.63;2.27;;;16.10;91.60;;;;;;6117105;23;20929;-82
2022/05/27 01:26:22;;;;;;;2.43;1.80;;;16.10;91.60;;;;;;6158780;23;20471;-83
2022/05/27 01:28:53;;;;;;;3.53;2.30;;;16.10;91.70;;;;;;6157400;23;20399;-83
2022/05/27 01:31:37;;;;;;;3.20;2.37;;;16.10;92.10;;;;;;6157899;23;20438;-83
2022/05/27 01:34:10;;;;;;;4.10;2.50;;;16.00;91.90;;;;;;6156571;23;20435;-83
2022/05/27 01:36:47;;;;;;;3.93;1.90;;;16.00;91.90;;;;;;6157538;23;20455;-82
2022/05/27 01:39:24;;;;;;;2.63;2.17;;;16.00;92.00;;;;;;6158081;23;20398;-82
2022/05/27 01:41:59;;;;;;;2.30;2.10;;;16.00;92.30;;;;;;6159716;23;20434;-83
2022/05/27 01:44:31;;;;;;;2.80;1.80;;;16.00;92.30;;;;;;6157840;23;20866;-83
2022/05/27 01:47:04;;;;;;;2.63;2.10;;;16.00;92.20;;;;;;6177340;23;20386;-82
2022/05/27 01:49:35;;;;;;;2.93;2.03;;;16.00;92.20;;;;;;6179871;23;20395;-81
2022/05/27 01:52:09;;;;;;;6.70;2.43;;;16.00;92.30;;;;;;6179369;23;20433;-82
2022/05/27 01:54:43;;;;;;;3.97;1.97;;;16.00;92.30;;;;;;6178724;23;20431;-83
2022/05/27 01:57:15;;;;;;;5.20;2.13;;;15.90;92.30;;;;;;6176194;23;20398;-82
2022/05/27 01:59:55;;;;;;;2.57;1.73;;;15.90;92.40;;;;;;6177090;23;20374;-83
2022/05/27 02:02:26;;;;;;;3.30;1.93;;;15.90;92.50;;;;;;6165790;23;20425;-83
2022/05/27 02:04:58;;;;;;;4.00;2.33;;;15.90;92.70;;;;;;6176365;23;20411;-84
2022/05/27 02:07:29;;;;;;;2.40;1.53;;;15.80;92.70;;;;;;6175024;23;20375;-81
2022/05/27 02:10:00;;;;;;;2.67;2.00;;;15.80;93.20;;;;;;6181465;23;20397;-82
2022/05/27 02:12:31;;;;;;;2.60;2.00;;;15.80;93.00;;;;;;6176422;23;20431;-84
2022/05/27 02:15:02;;;;;;;4.30;1.90;;;15.80;93.00;;;;;;6172389;23;20443;-83
2022/05/27 02:17:36;;;;;;;3.70;2.20;;;15.70;93.10;;;;;;6162219;23;20406;-83
2022/05/27 02:20:07;;;;;;;5.30;2.40;;;15.70;93.30;;;;;;6161101;23;20486;-82
2022/05/27 02:22:37;;;;;;;3.90;2.20;;;15.70;93.40;;;;;;6159011;23;20437;-81
2022/05/27 02:25:09;;;;;;;2.97;2.07;;;15.70;93.40;;;;;;6157873;23;20861;-83
2022/05/27 02:27:42;;;;;;;2.80;2.17;;;15.60;93.80;;;;;;6160253;23;20391;-83
2022/05/27 02:30:13;;;;;;;2.97;2.17;;;15.50;94.10;;;;;;6162162;23;20380;-83
2022/05/27 02:32:45;;;;;;;4.00;2.30;;;15.50;94.00;;;;;;6159625;23;20422;-83
2022/05/27 02:35:19;;;;;;;4.70;2.10;;;15.40;94.20;;;;;;6157732;23;20423;-84
2022/05/27 02:37:48;;;;;;;4.57;2.40;;;15.30;94.40;;;;;;6157037;23;20414;-84
2022/05/27 02:40:18;;;;;;;2.73;2.23;;;15.30;94.70;;;;;;6161995;23;20406;-84
2022/05/27 02:42:57;;;;;;;2.70;1.87;;;15.40;94.70;;;;;;6164563;23;20732;-84
2022/05/27 02:45:32;;;;;;;3.83;2.20;;;15.40;94.60;;;;;;6161852;23;20873;-84
2022/05/27 02:48:10;;;;;;;4.23;2.17;;;15.40;94.90;;;;;;6160210;23;20391;-86
2022/05/27 02:50:44;;;;;;;6.27;3.10;;;15.30;95.20;;;;;;6160915;23;20397;-86
2022/05/27 02:53:23;;;;;;;2.67;2.03;;;15.30;95.30;;;;;;6158784;23;21237;-85
2022/05/27 02:56:04;;;;;;;5.10;2.50;;;15.20;95.80;;;;;;6160447;23;20514;-86
2022/05/27 02:58:32;;;;;;;2.60;2.20;;;15.10;96.10;;;;;;6169929;23;20372;-86
2022/05/27 03:00:59;;;;;;;3.80;2.40;;;15.10;96.30;;;;;;6169113;23;20413;-86
2022/05/27 03:03:27;;;;;;;6.03;2.53;;;15.10;96.40;;;;;;6161117;23;20391;-86
2022/05/27 03:06:06;;;;;;;5.10;2.30;;;15.10;96.70;;;;;;6159262;23;20417;-85
2022/05/27 03:08:37;;;;;;;5.80;2.70;;;15.10;96.80;;;;;;6161001;23;20413;-85
2022/05/27 03:11:13;;;;;;;5.57;2.80;;;15.40;96.70;;;;;;6161205;23;20471;-85
2022/05/27 03:14:16;;;;;;;8.47;2.60;;;15.40;96.40;;;;;;6171302;23;20396;-87
2022/05/27 03:16:56;;;;;;;4.07;3.70;;;15.50;96.10;;;;;;6103906;23;20423;-85
2022/05/27 03:19:42;;;;;;;4.80;3.30;;;15.60;96.00;;;;;;6169255;23;20372;-86
2022/05/27 03:22:31;;;;;;;4.83;2.97;;;15.50;96.30;;;;;;6170315;23;20427;-86
2022/05/27 03:25:16;;;;;;;4.40;2.53;;;15.60;96.50;;;;;;6175150;23;20387;-86
2022/05/27 03:27:46;;;;;;;3.83;2.60;;;15.60;96.40;;;;;;6164278;23;20454;-87
2022/05/27 03:30:18;;;;;;;3.33;2.30;;;15.60;96.20;;;;;;6161020;23;20391;-86
2022/05/27 03:32:49;;;;;;;3.50;2.43;;;15.60;96.50;;;;;;6160594;23;20441;-85
2022/05/27 03:35:25;;;;;;;3.43;2.33;;;15.60;96.50;;;;;;6171973;23;20526;-85
2022/05/27 03:37:59;;;;;;;3.27;2.30;;;15.70;96.60;;;;;;6162965;23;20418;-85
2022/05/27 03:40:31;;;;;;;2.97;2.20;;;15.70;96.50;;;;;;6160053;23;20407;-85
2022/05/27 03:42:58;;;;;;;3.70;2.20;;;15.80;96.40;;;;;;6159032;23;20464;-86
2022/05/27 03:45:25;;;;;;;3.30;2.43;;;15.90;95.70;;;;;;6163760;23;20756;-85
2022/05/27 03:47:52;;;;;;;4.97;2.50;;;16.00;96.10;;;;;;6141243;23;20407;-85
2022/05/27 03:50:23;;;;;;;2.90;2.20;;;16.00;96.20;;;;;;6161620;23;20767;-85
2022/05/27 03:52:52;;;;;;;4.37;2.60;;;16.00;95.80;;;;;;6170257;23;20427;-84
2022/05/27 03:55:33;;;;;;;3.20;2.10;;;16.10;95.10;;;;;;6184868;23;20457;-86
2022/05/27 03:58:00;;;;;;;4.33;2.37;;;16.10;94.90;;;;;;6184197;23;20399;-88
2022/05/27 04:00:29;;;;;;;5.20;2.37;;;16.10;94.70;;;;;;6183929;23;20410;-86
2022/05/27 04:02:56;;;;;;;3.37;2.10;;;16.00;94.70;;;;;;6181687;23;20450;-84
2022/05/27 04:05:24;;;;;;;3.40;2.37;;;16.00;94.80;;;;;;6172779;23;20407;-84
2022/05/27 04:07:51;;;;;;;4.00;2.60;;;15.90;95.00;;;;;;6172758;23;20494;-82
2022/05/27 04:10:17;;;;;;;3.03;2.80;;;15.80;95.40;;;;;;6181226;23;20418;-84
2022/05/27 04:12:44;;;;;;;4.63;2.90;;;15.80;95.80;;;;;;6178600;23;20424;-84
2022/05/27 04:15:11;;;;;;;5.60;2.63;;;15.90;95.50;;;;;;6183140;23;20454;-82
2022/05/27 04:17:40;;;;;;;3.80;2.60;;;15.90;95.70;;;;;;6180506;23;20418;-82
2022/05/27 04:20:11;;;;;;;2.53;2.13;;;16.00;95.60;;;;;;6183295;23;20411;-85
2022/05/27 04:22:40;;;;;;;2.57;2.37;;;16.10;95.20;;;;;;6181798;23;20451;-85
2022/05/27 04:25:08;;;;;;;3.07;2.30;;;16.20;94.80;;;;;;6183925;23;20394;-87
2022/05/27 04:27:35;;;;;;;3.10;2.50;;;16.10;94.80;;;;;;6180523;23;20469;-83
2022/05/27 04:30:02;;;;;;;3.20;2.17;;;16.10;94.80;;;;;;6174568;23;20438;-82
2022/05/27 04:32:30;;;;;;;6.07;3.33;;;16.10;94.90;;;;;;6175671;23;20517;-83
2022/05/27 04:34:57;;;;;;;4.87;2.70;;;16.20;95.00;;;;;;6177781;23;20506;-86
2022/05/27 04:37:25;;;;;;;3.67;2.27;;;16.20;94.90;;;;;;6169819;23;20408;-86
2022/05/27 04:39:53;;;;;;;4.17;2.97;;;16.20;94.70;;;;;;6161122;23;20392;-85
2022/05/27 04:42:20;;;;;;;4.57;2.60;;;16.20;94.90;;;;;;6160857;23;20495;-86
2022/05/27 04:44:47;;;;;;;5.90;2.63;;;16.20;94.90;;;;;;6173920;23;20422;-86
2022/05/27 04:47:13;;;;;;;3.77;2.40;;;16.20;95.20;;;;;;6172140;23;20443;-86
2022/05/27 04:49:53;;;;;;;6.90;2.63;;;16.30;95.20;;;;;;6170062;23;20410;-87
2022/05/27 04:52:21;;;;;;;3.20;2.67;;;16.30;95.00;;;;;;6175267;23;20430;-85
2022/05/27 04:54:49;;;;;;;4.20;2.67;;;16.20;95.20;;;;;;6161179;23;20781;-83
2022/05/27 04:57:20;;;;;;;3.97;2.57;;;16.20;95.20;;;;;;6158201;23;20403;-83
2022/05/27 04:59:49;;;;;;;3.80;2.30;;;16.20;95.30;;;;;;6157478;23;20386;-84
2022/05/27 05:02:16;;;;;;;3.60;2.90;;;16.20;95.40;;;;;;6156732;23;20430;-84
2022/05/27 05:04:43;;;;;;;4.10;3.00;;;16.30;95.40;;;;;;6156666;23;20403;-83
2022/05/27 05:07:10;;;;;;;2.90;2.60;;;16.40;95.30;;;;;;6156599;23;20419;-83
2022/05/27 05:09:38;;;;;;;4.50;2.97;;;16.60;95.30;;;;;;6155487;23;20411;-83
2022/05/27 05:12:07;;;;;;;4.30;3.20;;;16.60;94.80;;;;;;6156413;23;21135;-83
2022/05/27 05:14:36;;;;;;;4.00;2.80;;;16.70;94.80;;;;;;6165078;23;20442;-84
2022/05/27 05:17:03;;;;;;;3.10;2.70;;;16.70;94.60;;;;;;6162893;23;20412;-83
2022/05/27 05:19:30;;;;;;;3.80;2.43;;;16.70;94.30;;;;;;6159653;23;20407;-83
2022/05/27 05:21:57;;;;;;;3.43;2.63;;;16.70;94.30;;;;;;6161274;23;20432;-84
2022/05/27 05:24:24;;;;;;;3.77;2.57;;;16.80;94.40;;;;;;6156440;23;20410;-83
2022/05/27 05:26:51;;;;;;;3.83;2.67;;;16.80;94.50;;;;;;6159788;23;20410;-84
2022/05/27 05:29:18;;;;;;;4.80;2.83;;;16.80;94.40;;;;;;6161395;23;20375;-82
2022/05/27 05:31:47;;;;;;;6.63;2.90;;;16.90;94.60;;;;;;6158239;23;20430;-84
2022/05/27 05:34:13;;;;;;;6.20;2.80;;;16.90;94.20;;;;;;6158619;23;20417;-85
2022/05/27 05:36:40;;;;;;;4.17;3.07;;;16.90;94.20;;;;;;6164537;23;20445;-85
2022/05/27 05:39:07;;;;;;;2.73;2.30;;;16.90;94.20;;;;;;6158050;23;20728;-86
2022/05/27 05:41:36;;;;;;;4.40;3.23;;;17.00;94.30;;;;;;6155741;23;21013;-86
2022/05/27 05:44:05;;;;;;;4.53;3.07;;;17.10;94.10;;;;;;6156633;23;20865;-84
2022/05/27 05:46:33;;;;;;;4.90;3.03;;;17.10;94.20;;;;;;6157571;23;20403;-83
2022/05/27 05:49:01;;;;;;;5.53;2.73;;;17.20;93.60;;;;;;6155820;23;20406;-83
2022/05/27 05:51:28;;;;;;;3.83;2.80;;;17.20;93.70;;;;;;6165727;23;20787;-85
2022/05/27 05:53:55;;;;;;;7.07;3.07;;;17.30;94.10;;;;;;6171367;23;20421;-82
2022/05/27 05:56:22;;;;;;;3.83;3.13;;;17.30;93.60;;;;;;6159841;23;20978;-83
2022/05/27 05:58:49;;;;;;;7.37;3.43;;;17.40;93.80;;;;;;6158475;23;20406;-83
2022/05/27 06:01:16;;;;;;;3.17;2.87;;;17.40;93.40;;;;;;6158926;23;20908;-85
2022/05/27 06:03:43;;;;;;;4.60;3.33;;;17.40;93.50;;;;;;6160126;23;20404;-83
2022/05/27 06:06:11;;;;;;;3.77;2.70;;;17.40;93.60;;;;;;6164345;23;20379;-84
2022/05/27 06:08:38;;;;;;;4.20;3.27;;;17.50;93.50;;;;;;6160346;23;20418;-84
2022/05/27 06:11:08;;;;;;;3.63;3.27;;;17.50;93.40;;;;;;6158697;23;20978;-83
2022/05/27 06:13:35;;;;;;;3.10;2.40;;;17.60;93.40;;;;;;6156381;23;21170;-83
2022/05/27 06:16:03;;;;;;;4.57;3.00;;;17.70;93.40;;;;;;6167007;23;20446;-83
2022/05/27 06:18:33;;;;;;;4.33;3.27;;;17.70;93.20;;;;;;6173107;23;20429;-84
2022/05/27 06:21:00;;;;;;;3.60;2.90;;;17.80;93.20;;;;;;6171523;23;20407;-83
2022/05/27 06:23:29;;;;;;;8.63;2.90;;;17.90;93.10;;;;;;6158557;23;20415;-83
2022/05/27 06:25:56;;;;;;;3.23;2.67;;;17.90;92.90;;;;;;6157648;23;20417;-83
2022/05/27 06:36:37;;;;;;;4.57;3.03;;;17.90;93.20;;;;;;6157160;23;20501;-83
2022/05/27 06:39:07;;;;;;;4.80;3.20;;;17.90;93.10;;;;;;6162215;23;20770;-82
2022/05/27 06:41:35;;;;;;;3.50;3.20;;;17.90;92.90;;;;;;6158201;23;20438;-83
2022/05/27 06:44:01;;;;;;;4.53;3.47;;;18.00;92.90;;;;;;6156958;23;20420;-84
2022/05/27 06:46:29;;;;;;;4.07;3.40;;;18.10;92.80;;;;;;6172853;23;20403;-82
2022/05/27 06:48:56;;;;;;;3.57;3.27;;;18.20;92.80;;;;;;6179089;23;20401;-83
2022/05/27 06:51:24;;;;;;;4.40;3.10;;;18.10;92.80;;;;;;6178694;23;20438;-83
2022/05/27 06:53:50;;;;;;;5.10;3.50;;;18.20;92.90;;;;;;6175773;23;20392;-84
2022/05/27 06:56:21;;;;;;;8.87;4.03;;;18.10;93.30;;;;;;6168097;23;20439;-83
2022/05/27 06:58:48;;;;;;;6.40;4.17;;;18.10;93.10;;;;;;6162152;23;20430;-83
2022/05/27 07:01:15;;;;;;;7.33;4.87;;;18.10;93.10;;;;;;6165951;23;20502;-84
2022/05/27 07:03:42;;;;;;;6.03;3.23;;;18.20;93.40;;;;;;6160384;23;20416;-82
2022/05/27 07:06:10;;;;;;;5.53;3.83;;;18.20;93.30;;;;;;6160758;23;20419;-83
2022/05/27 07:08:38;;;;;;;6.40;3.87;;;18.20;93.30;;;;;;6164346;23;20407;-84
2022/05/27 07:11:05;;;;;;;6.90;3.77;;;18.40;92.90;;;;;;6160214;23;20515;-83
2022/05/27 07:13:33;;;;;;;5.43;3.30;;;18.50;92.40;;;;;;6158883;23;20419;-83
2022/05/27 07:16:00;;;;;;;3.63;3.33;;;18.60;92.20;;;;;;6159802;23;20433;-83
2022/05/27 07:18:27;;;;;;;4.60;3.10;;;18.60;92.00;;;;;;6159350;23;20405;-83
2022/05/27 07:21:00;;;;;;;4.40;3.50;;;18.60;92.00;;;;;;6159532;23;20463;-84
2022/05/27 07:23:27;;;;;;;3.40;2.53;;;18.60;92.20;;;;;;6158736;23;20383;-83
2022/05/27 07:25:54;;;;;;;5.30;3.50;;;18.50;91.90;;;;;;6160078;23;20404;-86
2022/05/27 07:28:21;;;;;;;5.20;3.07;;;18.50;91.90;;;;;;6161334;23;20417;-79
2022/05/27 07:30:49;;;;;;;4.13;3.50;;;18.40;92.10;;;;;;6157142;23;20412;-80
2022/05/27 07:33:16;;;;;;;4.10;3.47;;;18.40;92.00;;;;;;6169890;23;20435;-79
2022/05/27 07:35:43;;;;;;;6.37;2.90;;;18.50;92.20;;;;;;6165110;23;20452;-81
2022/05/27 07:38:10;;;;;;;4.97;3.83;;;18.50;92.00;;;;;;6161214;23;20424;-80
2022/05/27 07:40:36;;;;;;;5.27;3.50;;;18.50;92.00;;;;;;6160111;23;20399;-80
2022/05/27 07:43:03;;;;;;;5.03;3.03;;;18.60;92.10;;;;;;6158986;23;20458;-82
2022/05/27 07:45:31;;;;;;;3.40;3.10;;;18.50;92.00;;;;;;6164584;23;20400;-82
2022/05/27 07:47:59;;;;;;;4.03;3.63;;;18.40;91.60;;;;;;6163999;23;20400;-82
2022/05/27 07:50:26;;;;;;;4.47;2.67;;;18.60;91.60;;;;;;6165418;23;20721;-84
2022/05/27 07:52:53;;;;;;;4.20;3.17;;;18.60;91.60;;;;;;6164026;23;20429;-82
2022/05/27 07:55:20;;;;;;;6.47;2.97;;;18.50;91.20;;;;;;6165152;23;20537;-83
2022/05/27 07:57:48;;;;;;;6.23;3.00;;;18.50;91.40;;;;;;6164471;23;20410;-83
2022/05/27 08:00:19;;;;;;;3.37;3.07;;;18.40;91.70;;;;;;6167517;23;20872;-82
2022/05/27 08:02:46;;;;;;;6.67;2.80;;;18.40;91.50;;;;;;6160486;23;20436;-82
2022/05/27 08:05:17;;;;;;;4.37;2.13;;;18.40;91.50;;;;;;6163815;23;20503;-83
2022/05/27 08:07:45;;;;;;;4.93;2.90;;;18.40;91.50;;;;;;6162731;23;20400;-82
2022/05/27 08:10:13;;;;;;;3.47;3.17;;;18.50;91.60;;;;;;6161645;23;20485;-81
2022/05/27 08:12:40;;;;;;;3.30;2.93;;;18.70;91.20;;;;;;6159278;23;20439;-82
2022/05/27 08:15:08;;;;;;;3.63;2.80;;;18.90;91.30;;;;;;6160531;23;20409;-82
2022/05/27 08:17:35;;;;;;;4.93;3.10;;;19.10;90.40;;;;;;6168022;23;20408;-82
2022/05/27 08:20:02;;;;;;;7.70;3.00;;;19.30;90.50;;;;;;6175028;23;20412;-84
2022/05/27 08:22:30;;;;;;;5.03;2.53;;;19.60;90.10;;;;;;6169563;23;20434;-80
2022/05/27 08:24:57;;;;;;;8.60;3.07;;;19.80;88.20;;;;;;6164854;23;20890;-79
2022/05/27 08:27:23;;;;;;;6.27;3.00;;;19.90;87.60;;;;;;6160013;23;20606;-79
2022/05/27 08:29:50;;;;;;;6.80;3.00;;;20.00;87.60;;;;;;6163270;23;20403;-79
2022/05/27 08:32:17;;;;;;;4.23;2.90;;;19.90;87.20;;;;;;6163053;23;20457;-80
2022/05/27 08:40:29;;;;;;;2.77;2.50;;;19.60;87.60;;;;;;6161516;23;20382;-81
2022/05/27 08:43:02;;;;;;;4.47;2.40;;;19.40;88.60;;;;;;6174480;23;20430;-81
2022/05/27 08:45:33;;;;;;;4.53;2.70;;;19.30;89.20;;;;;;6166923;23;20386;-79
2022/05/27 08:48:04;;;;;;;3.40;3.10;;;19.20;90.00;;;;;;6159911;23;20721;-81
2022/05/27 08:50:36;;;;;;;4.63;3.33;;;19.30;89.50;;;;;;6159332;23;20416;-80
2022/05/27 08:53:14;;;;;;;5.37;2.80;;;19.40;89.50;;;;;;6158662;23;20426;-81
2022/05/27 09:01:23;;;;;;;4.20;3.03;;;19.80;87.70;;;;;;6159728;23;20420;-80
2022/05/27 09:03:56;;;;;;;4.33;2.27;;;20.20;86.30;;;;;;6157411;23;20410;-80
2022/05/27 09:06:35;;;;;;;5.00;2.60;;;20.30;85.50;;;;;;6155977;23;20398;-79
2022/05/27 09:09:07;;;;;;;4.17;2.20;;;20.50;84.90;;;;;;6166547;23;20387;-79
2022/05/27 09:11:51;;;;;;;3.60;2.73;;;21.00;83.40;;;;;;6166081;23;20426;-80
2022/05/27 09:14:21;;;;;;;4.97;2.43;;;21.60;81.30;;;;;;6167007;23;20392;-80
2022/05/27 09:16:55;;;;;;;3.07;2.10;;;21.90;80.00;;;;;;6164148;23;20475;-80
2022/05/27 09:19:29;;;;;;;2.80;2.33;;;22.00;79.00;;;;;;6165532;23;20393;-80
2022/05/27 09:22:08;;;;;;;3.73;2.73;;;24.00;75.70;;;;;;6162688;23;20453;-81
2022/05/27 09:24:48;;;;;;;2.40;2.20;;;25.60;67.10;;;;;;6161029;23;20401;-80
2022/05/27 09:27:21;;;;;;;4.40;2.40;;;25.40;65.20;;;;;;6162909;23;20391;-79
2022/05/27 09:30:00;;;;;;;5.13;2.37;;;25.10;65.50;;;;;;6159306;23;20398;-80
2022/05/27 09:32:32;;;;;;;4.00;2.33;;;25.90;63.20;;;;;;6158641;23;20429;-80
2022/05/27 09:35:04;;;;;;;2.77;2.40;;;25.90;61.40;;;;;;6157669;23;20388;-79
2022/05/27 09:37:35;;;;;;;2.20;2.00;;;26.20;62.30;;;;;;6157002;23;20527;-79
2022/05/27 09:40:10;;;;;;;2.83;1.73;;;26.20;59.40;;;;;;6159109;23;20407;-79
2022/05/27 09:42:43;;;;;;;4.20;2.20;;;26.30;59.60;;;;;;6157918;23;20438;-79
2022/05/27 09:45:12;;;;;;;4.83;2.10;;;26.00;57.80;;;;;;6161431;23;20465;-81
2022/05/27 09:47:40;;;;;;;3.10;2.20;;;25.90;58.70;;;;;;6161022;23;20394;-80
2022/05/27 09:50:17;;;;;;;4.30;2.80;;;25.70;58.80;;;;;;6160807;23;20506;-79
2022/05/27 09:52:45;;;;;;;4.33;2.30;;;25.70;58.50;;;;;;6165991;23;20433;-80
2022/05/27 09:55:24;;;;;;;3.37;2.00;;;26.10;58.30;;;;;;6171833;23;20403;-79
2022/05/27 09:57:57;;;;;;;3.97;2.17;;;26.40;57.70;;;;;;6170552;23;20390;-79
2022/05/27 10:00:36;;;;;;;5.30;2.87;;;26.50;56.60;;;;;;6172058;23;20388;-79
2022/05/27 10:03:23;;;;;;;2.60;2.40;;;26.30;56.50;;;;;;6166136;23;20749;-80
2022/05/27 10:05:54;;;;;;;4.13;2.13;;;25.20;58.40;;;;;;6163663;23;20397;-80
2022/05/27 10:08:34;;;;;;;2.90;1.93;;;25.80;57.50;;;;;;6171474;23;20467;-79
2022/05/27 10:11:10;;;;;;;2.40;1.97;;;27.50;55.20;;;;;;6169940;23;20396;-79
2022/05/27 10:13:40;;;;;;;3.07;1.90;;;28.70;53.00;;;;;;6171083;23;20414;-80
2022/05/27 10:16:11;;;;;;;2.10;1.90;;;29.60;50.80;;;;;;6160431;23;20452;-80
2022/05/27 10:18:38;;;;;;;5.13;1.83;;;30.20;49.10;;;;;;6172599;23;20384;-79
2022/05/27 10:21:11;;;;;;;2.93;1.87;;;30.50;47.90;;;;;;6172629;23;20413;-80
2022/05/27 10:23:40;;;;;;;3.40;1.83;;;31.00;47.30;;;;;;6164448;23;20458;-80
2022/05/27 10:26:25;;;;;;;3.00;2.00;;;31.60;46.30;;;;;;6161063;23;20406;-80
2022/05/27 10:29:06;;;;;;;4.07;2.33;;;32.40;44.70;;;;;;6158276;23;20394;-80
2022/05/27 10:31:33;;;;;;;3.93;2.17;;;33.00;43.70;;;;;;6158997;23;20445;-80
2022/05/27 10:34:00;;;;;;;2.97;2.13;;;32.50;43.30;;;;;;6157754;23;20411;-80
2022/05/27 10:36:47;;;;;;;2.57;1.93;;;31.30;44.60;;;;;;6159247;23;20439;-81
2022/05/27 10:39:27;;;;;;;2.60;2.13;;;30.10;45.50;;;;;;6165560;23;20397;-80
2022/05/27 10:42:28;;;;;;;2.77;1.80;;;28.70;47.40;;;;;;6161256;23;20444;-79
2022/05/27 10:45:10;;;;;;;3.43;1.90;;;28.00;49.60;;;;;;6141925;23;20414;-78
2022/05/27 10:47:58;;;;;;;2.40;1.77;;;28.30;48.40;;;;;;6159265;23;20383;-80
2022/05/27 10:50:31;;;;;;;3.50;2.30;;;27.60;48.50;;;;;;6159054;23;20693;-80
2022/05/27 10:53:22;;;;;;;1.83;1.50;;;27.20;49.30;;;;;;6158427;23;20505;-79
2022/05/27 10:56:02;;;;;;;3.33;2.40;;;26.80;49.80;;;;;;6158302;23;20726;-79
2022/05/27 11:04:51;;;;;;;2.70;2.00;;;25.60;51.80;;;;;;6139887;23;20435;-79
2022/05/27 11:07:28;;;;;;;2.10;1.83;;;25.00;53.10;;;;;;6160258;23;20383;-78
2022/05/27 11:10:09;;;;;;;2.60;1.80;;;24.40;54.20;;;;;;6158393;23;20383;-78
2022/05/27 11:15:45;;;;;;;3.13;2.00;;;24.00;55.30;;;;;;6160371;23;20768;-79
2022/05/27 11:18:20;;;;;;;2.73;1.80;;;24.00;55.40;;;;;;6157374;23;20438;-82
2022/05/27 11:21:07;;;;;;;2.67;1.57;;;23.80;55.50;;;;;;6160994;23;20395;-83
2022/05/27 11:24:04;;;;;;;3.10;2.23;;;23.90;55.80;;;;;;6162430;23;20402;-82
2022/05/27 11:26:41;;;;;;;3.40;2.13;;;23.90;55.50;;;;;;6161984;23;20395;-80
2022/05/27 11:29:45;;;;;;;2.40;2.10;;;23.80;56.10;;;;;;6162954;23;20414;-81
2022/05/27 11:32:25;;;;;;;2.77;2.17;;;24.20;55.70;;;;;;6178839;23;20443;-81
2022/05/27 11:35:01;;;;;;;3.50;1.83;;;24.80;55.30;;;;;;6179904;23;20426;-81
2022/05/27 11:37:48;;;;;;;2.37;2.10;;;25.40;54.70;;;;;;6176524;23;20426;-81
2022/05/27 11:40:38;;;;;;;4.00;2.00;;;25.60;54.20;;;;;;6176954;23;20399;-82
2022/05/27 11:43:37;;;;;;;5.93;3.50;;;26.30;53.00;;;;;;6173909;23;20434;-81
2022/05/27 11:46:30;;;;;;;3.83;2.23;;;26.30;52.80;;;;;;6164846;23;20426;-83
2022/05/27 11:49:21;;;;;;;3.10;2.20;;;25.80;53.10;;;;;;6160606;23;20423;-82
2022/05/27 11:51:59;;;;;;;3.90;2.57;;;25.60;53.60;;;;;;6163060;23;20522;-83
2022/05/27 11:54:48;;;;;;;2.57;2.13;;;25.20;54.60;;;;;;6162953;23;20398;-81
2022/05/27 11:57:26;;;;;;;2.30;1.90;;;24.70;55.70;;;;;;6162244;23;20505;-83
2022/05/27 11:59:58;;;;;;;5.67;4.37;;;24.40;56.30;;;;;;6165388;23;20391;-82
2022/05/27 12:02:34;;;;;;;3.60;2.97;;;24.20;56.60;;;;;;6166777;23;20426;-82
2022/05/27 12:05:09;;;;;;;2.83;1.90;;;24.00;56.80;;;;;;6172068;23;20387;-82
2022/05/27 12:07:43;;;;;;;2.63;1.80;;;23.50;57.70;;;;;;6163034;23;20415;-82
2022/05/27 12:10:21;;;;;;;2.23;1.70;;;23.30;58.30;;;;;;6160733;23;20393;-83
2022/05/27 12:12:53;;;;;;;2.97;2.20;;;23.40;58.70;;;;;;6162236;23;20411;-82
2022/05/27 12:15:25;;;;;;;2.23;1.97;;;23.40;58.70;;;;;;6162699;23;20394;-82
2022/05/27 12:17:54;;;;;;;2.13;1.93;;;23.20;59.00;;;;;;6158773;23;20430;-82
2022/05/27 12:20:26;;;;;;;4.53;2.00;;;23.20;59.90;;;;;;6161182;23;20407;-82
2022/05/27 12:22:54;;;;;;;2.00;1.67;;;23.30;59.80;;;;;;6162901;23;20440;-82
2022/05/27 12:25:26;;;;;;;2.70;1.90;;;23.10;59.60;;;;;;6173445;23;20452;-82
2022/05/27 12:27:54;;;;;;;4.73;3.03;;;22.80;60.40;;;;;;6169971;23;20389;-81
2022/05/27 12:30:31;;;;;;;3.67;2.90;;;22.80;61.30;;;;;;6166801;23;20526;-82
2022/05/27 12:32:59;;;;;;;2.60;2.40;;;22.90;61.00;;;;;;6162542;23;20516;-81
2022/05/27 12:35:44;;;;;;;3.47;2.80;;;22.90;61.40;;;;;;6161956;23;20413;-82
2022/05/27 12:38:15;;;;;;;6.10;3.83;;;23.00;61.10;;;;;;6160734;23;20504;-83
2022/05/27 12:40:47;;;;;;;3.20;2.43;;;23.10;60.70;;;;;;6162333;23;20892;-83
2022/05/27 12:43:27;;;;;;;2.77;1.80;;;23.40;59.90;;;;;;6161297;23;20443;-83
2022/05/27 12:46:14;;;;;;;1.93;1.57;;;24.20;59.40;;;;;;6160606;23;20874;-83
2022/05/27 12:48:43;;;;;;;3.50;1.80;;;26.60;55.70;;;;;;6160915;23;20387;-83
2022/05/27 12:51:39;;;;;;;3.17;1.70;;;29.60;51.00;;;;;;6163089;23;20413;-85
2022/05/27 12:54:06;;;;;;;3.23;1.87;;;31.80;46.80;;;;;;6166826;23;20442;-84
2022/05/27 13:02:56;;;;;;;3.50;1.80;;;30.70;46.10;;;;;;6162472;23;20409;-84
2022/05/27 13:05:44;;;;;;;1.97;1.40;;;29.50;47.60;;;;;;6162520;23;20389;-84
2022/05/27 13:08:20;;;;;;;3.93;1.83;;;28.60;48.70;;;;;;6160166;23;20407;-85
2022/05/27 13:10:51;;;;;;;3.30;2.40;;;27.40;50.60;;;;;;6164865;23;20383;-85
2022/05/27 13:13:25;;;;;;;3.27;1.80;;;26.90;52.20;;;;;;6164011;23;20491;-85
2022/05/27 13:16:05;;;;;;;2.90;1.90;;;26.50;53.90;;;;;;6158151;23;20396;-85
2022/05/27 13:18:39;;;;;;;2.93;1.90;;;26.40;53.90;;;;;;6159652;23;20753;-86
2022/05/27 13:21:12;;;;;;;5.43;2.13;;;26.20;54.50;;;;;;6166852;23;20396;-84
2022/05/27 13:23:58;;;;;;;3.13;1.77;;;26.10;54.70;;;;;;6166164;23;20395;-85
2022/05/27 13:26:45;;;;;;;2.13;1.93;;;25.80;55.00;;;;;;6163446;23;20517;-83
2022/05/27 13:29:24;;;;;;;1.80;1.70;;;25.50;55.80;;;;;;6160871;23;20868;-86
2022/05/27 13:31:55;;;;;;;2.23;1.83;;;25.30;56.40;;;;;;6160367;23;20474;-84
2022/05/27 13:34:32;;;;;;;3.43;2.13;;;25.20;56.80;;;;;;6160033;23;20397;-84
2022/05/27 13:37:02;;;;;;;4.23;1.93;;;25.10;57.40;;;;;;6155008;23;20537;-84
2022/05/27 13:39:37;;;;;;;3.87;2.60;;;25.00;57.80;;;;;;6161627;23;20399;-85
2022/05/27 13:42:04;;;;;;;2.43;2.13;;;25.10;57.40;;;;;;6179005;23;20438;-86
2022/05/27 13:44:31;;;;;;;2.67;2.33;;;24.80;57.20;;;;;;6166889;23;20423;-84
2022/05/27 13:47:00;;;;;;;3.17;1.60;;;24.90;57.30;;;;;;6161804;23;20434;-85
2022/05/27 13:49:31;;;;;;;2.17;1.53;;;25.00;57.20;;;;;;6160722;23;20415;-84
2022/05/27 13:51:59;;;;;;;4.60;1.97;;;24.90;57.00;;;;;;6160933;23;20427;-83